Time;durP1;ratioP1;P1;durP2;ratioP2;P2;SDS_P1;SDS_P2;PMS_P1;PMS_P2;Temp;Humidity;BMP_temperature;BMP_pressure;BME280_temperature;BME280_humidity;BME280_pressure;Samples;Min_cycle;Max_cycle;Signal;HPM_P1;HPM_P2
2022/04/17 00:00:16;;;;;;;2.85;2.20;;;7.00;84.60;;;;;;4966282;28;20125;-68
2022/04/17 00:02:42;;;;;;;3.25;2.20;;;7.00;85.40;;;;;;4964759;28;20420;-69
2022/04/17 00:05:08;;;;;;;6.40;2.83;;;7.00;85.60;;;;;;4965701;28;20035;-69
2022/04/17 00:07:34;;;;;;;4.60;2.90;;;6.90;85.70;;;;;;4966032;28;22864;-68
2022/04/17 00:10:01;;;;;;;5.25;3.08;;;6.90;85.90;;;;;;4981883;28;20043;-69
2022/04/17 00:12:27;;;;;;;3.42;2.60;;;6.90;86.30;;;;;;4968916;28;20039;-68
2022/04/17 00:14:54;;;;;;;6.13;3.70;;;6.90;86.50;;;;;;4965612;28;20042;-69
2022/04/17 00:17:21;;;;;;;3.83;2.75;;;6.80;85.90;;;;;;4966882;28;20500;-68
2022/04/17 00:19:47;;;;;;;4.95;3.10;;;6.90;86.00;;;;;;4967323;28;20046;-68
2022/04/17 00:22:13;;;;;;;5.40;3.00;;;6.80;85.80;;;;;;4968812;28;20507;-69
2022/04/17 00:24:39;;;;;;;8.27;3.10;;;6.90;86.30;;;;;;4966865;28;20142;-68
2022/04/17 00:27:05;;;;;;;10.43;4.22;;;6.90;86.70;;;;;;4969050;28;20057;-68
2022/04/17 00:29:31;;;;;;;4.22;3.05;;;6.80;86.80;;;;;;4964701;28;20042;-69
2022/04/17 00:31:59;;;;;;;5.85;3.60;;;6.80;87.00;;;;;;4966293;28;20035;-69
2022/04/17 00:34:26;;;;;;;6.53;4.15;;;6.80;87.40;;;;;;4967540;28;20038;-69
2022/04/17 00:36:52;;;;;;;6.93;3.67;;;6.80;87.80;;;;;;4965483;28;20070;-68
2022/04/17 00:39:18;;;;;;;6.75;3.83;;;6.80;88.30;;;;;;4964595;28;20047;-69
2022/04/17 00:41:44;;;;;;;7.25;3.92;;;6.80;88.70;;;;;;4968847;28;20070;-68
2022/04/17 00:44:13;;;;;;;6.30;4.50;;;6.70;89.00;;;;;;4966770;28;21020;-68
2022/04/17 00:46:40;;;;;;;5.70;3.78;;;6.70;90.10;;;;;;4964394;28;20481;-68
2022/04/17 00:49:06;;;;;;;5.28;4.05;;;6.70;90.60;;;;;;4966756;28;20632;-68
2022/04/17 00:51:34;;;;;;;5.60;4.28;;;6.70;90.90;;;;;;4965614;28;20035;-68
2022/04/17 00:54:02;;;;;;;5.15;3.70;;;6.60;91.20;;;;;;4966731;28;20046;-68
2022/04/17 00:56:28;;;;;;;5.32;4.03;;;6.50;91.60;;;;;;4966603;28;20058;-69
2022/04/17 00:59:05;;;;;;;5.15;3.60;;;6.50;92.10;;;;;;4981710;28;20057;-68
2022/04/17 01:01:33;;;;;;;4.32;3.60;;;6.50;92.60;;;;;;4968191;28;20089;-68
2022/04/17 01:03:59;;;;;;;5.75;4.18;;;6.40;93.10;;;;;;4968687;28;20070;-68
2022/04/17 01:06:26;;;;;;;6.90;3.95;;;6.50;93.70;;;;;;4969087;28;20102;-68
2022/04/17 01:08:53;;;;;;;5.38;4.07;;;6.40;94.00;;;;;;4968818;28;20035;-68
2022/04/17 01:11:19;;;;;;;6.65;4.38;;;6.40;94.30;;;;;;4971505;28;20049;-68
2022/04/17 01:13:45;;;;;;;4.68;3.60;;;6.30;94.80;;;;;;4969343;28;20517;-68
2022/04/17 01:16:11;;;;;;;8.50;3.75;;;6.30;94.90;;;;;;4984639;28;20038;-68
2022/04/17 01:19:01;;;;;;;7.78;4.30;;;6.30;95.10;;;;;;4970292;28;20118;-68
2022/04/17 01:21:28;;;;;;;5.97;4.07;;;6.30;95.70;;;;;;4986015;28;20480;-69
2022/04/17 01:26:56;;;;;;;5.57;4.25;;;6.20;95.90;;;;;;4971423;28;20051;-68
2022/04/17 01:29:42;;;;;;;5.38;4.22;;;6.20;96.00;;;;;;4970005;28;20066;-68
2022/04/17 01:32:09;;;;;;;7.43;4.63;;;6.10;96.20;;;;;;4968380;28;20051;-68
2022/04/17 01:34:35;;;;;;;5.68;4.05;;;6.10;96.50;;;;;;4969701;28;20632;-68
2022/04/17 01:37:02;;;;;;;7.38;4.25;;;6.10;96.80;;;;;;4982822;28;20035;-68
2022/04/17 01:39:28;;;;;;;7.05;4.72;;;6.10;97.00;;;;;;4968769;28;20043;-68
2022/04/17 01:41:55;;;;;;;8.82;4.43;;;6.10;97.20;;;;;;4969287;28;20057;-68
2022/04/17 01:44:22;;;;;;;7.15;5.03;;;6.10;97.50;;;;;;4967907;28;20582;-68
2022/04/17 01:46:48;;;;;;;5.35;4.45;;;6.10;97.50;;;;;;4968868;28;20046;-68
2022/04/17 01:49:15;;;;;;;7.43;4.72;;;6.00;97.60;;;;;;4968984;28;20130;-68
2022/04/17 01:51:41;;;;;;;6.05;4.55;;;6.00;97.90;;;;;;4967571;28;20073;-68
2022/04/17 01:54:09;;;;;;;7.18;4.68;;;6.00;98.20;;;;;;4970041;28;20046;-68
2022/04/17 01:56:36;;;;;;;7.68;4.82;;;6.00;98.40;;;;;;4969232;28;20086;-68
2022/04/17 01:59:05;;;;;;;6.85;4.35;;;5.90;98.40;;;;;;4966725;28;20110;-68
2022/04/17 02:01:31;;;;;;;6.95;4.82;;;5.90;98.90;;;;;;4969149;28;20045;-68
2022/04/17 02:03:57;;;;;;;6.47;5.03;;;5.90;99.00;;;;;;4967630;28;20448;-68
2022/04/17 02:06:23;;;;;;;7.40;5.40;;;5.90;99.40;;;;;;4982591;28;20045;-68
2022/04/17 02:08:51;;;;;;;5.10;4.22;;;5.90;99.80;;;;;;4970129;28;20130;-68
2022/04/17 02:11:17;;;;;;;7.13;5.05;;;5.90;99.90;;;;;;4969138;28;20049;-68
2022/04/17 02:13:43;;;;;;;6.85;4.90;;;5.90;99.90;;;;;;4968127;28;20503;-68
2022/04/17 02:16:08;;;;;;;8.00;4.75;;;5.80;99.90;;;;;;4970390;28;20031;-68
2022/04/17 02:18:34;;;;;;;8.57;4.72;;;5.80;99.90;;;;;;4967887;28;20117;-68
2022/04/17 02:20:59;;;;;;;6.22;4.72;;;5.80;99.90;;;;;;4968445;28;20100;-68
2022/04/17 02:23:25;;;;;;;9.20;4.88;;;5.80;99.90;;;;;;4984807;28;20497;-68
2022/04/17 02:25:51;;;;;;;5.35;4.85;;;5.80;99.90;;;;;;4968529;28;20089;-68
2022/04/17 02:28:17;;;;;;;7.15;4.57;;;5.80;99.90;;;;;;4967511;28;20066;-69
2022/04/17 02:30:42;;;;;;;6.68;5.10;;;5.80;99.90;;;;;;4968425;28;20042;-68
2022/04/17 02:33:08;;;;;;;6.85;4.95;;;5.70;99.90;;;;;;4970761;28;20026;-68
2022/04/17 02:35:34;;;;;;;7.53;5.15;;;5.70;99.90;;;;;;4969018;28;20035;-68
2022/04/17 02:38:00;;;;;;;7.05;5.45;;;5.70;99.90;;;;;;4971121;28;20049;-68
2022/04/17 02:40:26;;;;;;;7.80;4.75;;;5.70;99.90;;;;;;4966713;28;20054;-68
2022/04/17 02:42:54;;;;;;;7.65;4.85;;;5.60;99.90;;;;;;4969406;28;20057;-68
2022/04/17 02:45:20;;;;;;;8.25;4.65;;;5.60;99.90;;;;;;4967961;28;20042;-68
2022/04/17 02:47:46;;;;;;;7.75;5.38;;;5.60;99.90;;;;;;4965280;28;20051;-68
2022/04/17 02:50:17;;;;;;;6.25;4.93;;;5.60;99.90;;;;;;4981776;28;20498;-68
2022/04/17 02:52:43;;;;;;;6.15;4.75;;;5.50;99.90;;;;;;4969041;28;20034;-68
2022/04/17 02:55:10;;;;;;;7.45;5.57;;;5.60;99.90;;;;;;4968630;28;20398;-68
2022/04/17 02:57:36;;;;;;;8.65;5.18;;;5.60;99.90;;;;;;4968365;28;20405;-68
2022/04/17 03:00:10;;;;;;;7.47;5.03;;;5.50;99.90;;;;;;4964934;28;20051;-68
2022/04/17 03:05:36;;;;;;;6.88;5.13;;;5.40;99.90;;;;;;4968844;28;20054;-68
2022/04/17 03:08:07;;;;;;;7.43;5.03;;;5.40;99.90;;;;;;4967368;28;20042;-68
2022/04/17 03:10:34;;;;;;;6.38;5.10;;;5.40;99.90;;;;;;4968784;28;20046;-68
2022/04/17 03:12:59;;;;;;;8.85;5.28;;;5.40;99.90;;;;;;4969458;28;20039;-68
2022/04/17 03:15:25;;;;;;;6.30;4.80;;;5.40;99.90;;;;;;4966803;28;20428;-68
2022/04/17 03:17:51;;;;;;;8.05;5.78;;;5.40;99.90;;;;;;4968536;28;20481;-68
2022/04/17 03:20:17;;;;;;;10.88;5.05;;;5.30;99.90;;;;;;4967350;28;20043;-68
2022/04/17 03:22:43;;;;;;;10.05;5.00;;;5.30;99.90;;;;;;4968636;28;20046;-68
2022/04/17 03:25:09;;;;;;;8.73;5.72;;;5.30;99.90;;;;;;4966680;28;20048;-68
2022/04/17 03:27:35;;;;;;;8.05;5.65;;;5.20;99.90;;;;;;4967911;28;20078;-68
2022/04/17 03:30:01;;;;;;;7.55;5.10;;;5.20;99.90;;;;;;4967609;28;20050;-68
2022/04/17 03:32:27;;;;;;;6.88;5.47;;;5.20;99.90;;;;;;4966831;28;20047;-68
2022/04/17 03:34:52;;;;;;;8.23;5.22;;;5.20;99.90;;;;;;4968875;28;20046;-68
2022/04/17 03:37:18;;;;;;;7.32;5.28;;;5.20;99.90;;;;;;4966243;28;20066;-68
2022/04/17 03:39:50;;;;;;;6.25;5.00;;;5.20;99.90;;;;;;4967125;28;20057;-68
2022/04/17 03:42:16;;;;;;;7.85;5.40;;;5.20;99.90;;;;;;4966845;28;20134;-68
2022/04/17 03:44:41;;;;;;;9.25;5.40;;;5.20;99.90;;;;;;4965281;28;20125;-68
2022/04/17 03:47:07;;;;;;;6.93;4.85;;;5.10;99.90;;;;;;4967256;28;20046;-68
2022/04/17 03:49:33;;;;;;;7.72;5.80;;;5.10;99.90;;;;;;4962280;28;20043;-68
2022/04/17 03:52:00;;;;;;;8.70;5.60;;;5.10;99.90;;;;;;4966486;28;20046;-68
2022/04/17 03:54:26;;;;;;;8.60;5.72;;;5.10;99.90;;;;;;4967081;28;20564;-68
2022/04/17 03:56:52;;;;;;;8.25;5.30;;;5.10;99.90;;;;;;4966055;28;20047;-68
2022/04/17 03:59:18;;;;;;;7.60;5.32;;;5.10;99.90;;;;;;4981273;28;20032;-68
2022/04/17 04:01:46;;;;;;;8.40;5.60;;;5.00;99.90;;;;;;4965615;28;20043;-68
2022/04/17 04:04:14;;;;;;;8.45;5.80;;;5.10;99.90;;;;;;4966150;28;20046;-68
2022/04/17 04:06:41;;;;;;;6.18;4.95;;;5.10;99.90;;;;;;4965507;28;20046;-68
2022/04/17 04:09:07;;;;;;;7.50;5.57;;;5.00;99.90;;;;;;4968153;28;20114;-68
2022/04/17 04:11:33;;;;;;;7.30;5.40;;;5.00;99.90;;;;;;4967454;28;20222;-68
2022/04/17 04:13:58;;;;;;;10.65;5.18;;;5.00;99.90;;;;;;4983772;28;20042;-68
2022/04/17 04:16:24;;;;;;;7.32;5.53;;;5.00;99.90;;;;;;4965873;28;20129;-68
2022/04/17 04:18:50;;;;;;;10.88;5.53;;;4.90;99.90;;;;;;4965887;28;20150;-68
2022/04/17 04:21:15;;;;;;;10.25;5.43;;;4.90;99.90;;;;;;4967118;28;20041;-68
2022/04/17 04:23:41;;;;;;;6.78;4.90;;;4.80;99.90;;;;;;4962011;28;20105;-68
2022/04/17 04:26:07;;;;;;;7.78;5.30;;;4.80;99.90;;;;;;4966167;28;20045;-68
2022/04/17 04:28:33;;;;;;;8.38;5.20;;;4.70;99.90;;;;;;4965074;28;20101;-68
2022/04/17 04:30:59;;;;;;;7.90;5.20;;;4.70;99.90;;;;;;4961856;28;20683;-68
2022/04/17 04:33:25;;;;;;;9.07;5.47;;;4.70;99.90;;;;;;4964253;28;20047;-68
2022/04/17 04:35:51;;;;;;;7.15;5.18;;;4.70;99.90;;;;;;4968576;28;20630;-68
2022/04/17 04:38:16;;;;;;;6.65;5.18;;;4.70;99.90;;;;;;4972854;28;20884;-68
2022/04/17 04:40:42;;;;;;;9.50;5.60;;;4.60;99.90;;;;;;4971323;28;20049;-68
2022/04/17 04:43:08;;;;;;;6.43;4.78;;;4.60;99.90;;;;;;4972023;28;20041;-68
2022/04/17 04:49:29;;;;;;;8.73;5.47;;;4.50;99.90;;;;;;4972636;28;20493;-68
2022/04/17 04:51:07;;;;;;;11.63;6.93;;;4.60;99.90;;;;;;4972663;28;20055;-68
2022/04/17 04:53:32;;;;;;;8.48;5.50;;;4.70;99.90;;;;;;4970527;28;20050;-68
2022/04/17 04:55:58;;;;;;;8.77;5.10;;;4.80;99.90;;;;;;4967898;28;20047;-68
2022/04/17 04:58:24;;;;;;;11.85;5.47;;;4.90;99.90;;;;;;4968867;28;20734;-68
2022/04/17 05:00:49;;;;;;;10.95;5.50;;;5.00;99.90;;;;;;4971936;28;20125;-68
2022/04/17 05:03:15;;;;;;;7.10;4.82;;;5.20;99.90;;;;;;4969649;28;20035;-68
2022/04/17 05:05:40;;;;;;;8.73;5.10;;;5.60;99.90;;;;;;4973519;28;20054;-68
2022/04/17 05:08:06;;;;;;;7.35;5.50;;;6.50;99.90;;;;;;4970751;28;20061;-68
2022/04/17 05:10:32;;;;;;;7.78;5.60;;;7.50;99.90;;;;;;4972855;28;20160;-68
2022/04/17 05:12:57;;;;;;;8.10;5.13;;;8.50;99.90;;;;;;4971329;28;20054;-68
2022/04/17 05:15:23;;;;;;;8.40;4.90;;;9.40;99.30;;;;;;4971046;28;20038;-68
2022/04/17 05:17:48;;;;;;;10.77;5.82;;;10.30;97.50;;;;;;4984240;28;20039;-68
2022/04/17 05:20:17;;;;;;;7.93;4.72;;;11.10;92.60;;;;;;4973965;28;20054;-68
2022/04/17 05:22:44;;;;;;;8.98;5.50;;;11.90;90.10;;;;;;4974723;28;20145;-68
2022/04/17 05:25:10;;;;;;;8.40;5.50;;;12.70;84.60;;;;;;4969405;28;20050;-68
2022/04/17 05:27:35;;;;;;;6.45;4.88;;;13.50;80.00;;;;;;4968863;28;20047;-68
2022/04/17 05:30:01;;;;;;;7.35;5.15;;;14.30;75.30;;;;;;4975186;28;20043;-68
2022/04/17 05:32:26;;;;;;;7.82;5.75;;;15.10;70.80;;;;;;4955841;28;20881;-68
2022/04/17 05:34:52;;;;;;;6.45;4.88;;;15.80;67.00;;;;;;4986979;28;20412;-68
2022/04/17 05:37:18;;;;;;;5.95;5.05;;;16.60;64.00;;;;;;4969844;28;20401;-68
2022/04/17 05:39:43;;;;;;;7.95;5.35;;;17.20;61.20;;;;;;4969498;28;20045;-68
2022/04/17 05:42:10;;;;;;;7.63;5.00;;;17.90;59.20;;;;;;4967555;28;20051;-68
2022/04/17 05:44:37;;;;;;;8.00;4.55;;;18.50;56.60;;;;;;4985807;28;20057;-68
2022/04/17 05:47:03;;;;;;;8.77;5.32;;;18.80;55.60;;;;;;4967222;28;20042;-68
2022/04/17 05:49:29;;;;;;;7.00;5.00;;;19.30;53.80;;;;;;4969013;28;20043;-68
2022/04/17 05:51:57;;;;;;;8.48;5.57;;;20.00;51.40;;;;;;4984017;28;20054;-69
2022/04/17 05:54:23;;;;;;;6.95;5.53;;;20.60;50.20;;;;;;4971360;28;20043;-68
2022/04/17 05:56:51;;;;;;;7.32;4.63;;;21.00;48.60;;;;;;4968668;28;20058;-68
2022/04/17 05:59:17;;;;;;;7.85;6.00;;;21.30;47.60;;;;;;4968073;28;20038;-68
2022/04/17 06:01:43;;;;;;;7.10;5.13;;;21.80;48.20;;;;;;4966944;28;20380;-69
2022/04/17 06:04:08;;;;;;;5.80;4.15;;;22.20;45.30;;;;;;4965978;28;20035;-69
2022/04/17 06:06:34;;;;;;;6.97;5.45;;;22.00;45.10;;;;;;4965929;28;20039;-69
2022/04/17 06:09:00;;;;;;;6.32;5.15;;;21.90;45.60;;;;;;4966545;28;20035;-69
2022/04/17 06:11:26;;;;;;;5.85;4.82;;;22.30;45.00;;;;;;4968559;28;20042;-69
2022/04/17 06:13:52;;;;;;;14.10;5.20;;;22.70;43.70;;;;;;4966868;28;20050;-69
2022/04/17 06:16:18;;;;;;;6.13;5.15;;;22.80;42.90;;;;;;4967577;28;20038;-69
2022/04/17 06:18:43;;;;;;;5.13;4.60;;;23.00;43.00;;;;;;4969129;28;20035;-69
2022/04/17 06:21:11;;;;;;;10.35;4.82;;;23.70;42.30;;;;;;4966588;28;20042;-69
2022/04/17 06:23:37;;;;;;;5.82;4.85;;;24.10;41.70;;;;;;4967713;28;20054;-69
2022/04/17 06:26:02;;;;;;;6.60;5.05;;;24.40;40.20;;;;;;4966646;28;20482;-69
2022/04/17 06:28:28;;;;;;;6.07;5.47;;;24.80;40.30;;;;;;4966119;28;20043;-69
2022/04/17 06:30:54;;;;;;;6.82;5.57;;;24.70;39.60;;;;;;4967645;28;20039;-69
2022/04/17 06:33:20;;;;;;;5.80;5.20;;;24.30;40.00;;;;;;4948286;28;20047;-69
2022/04/17 06:35:45;;;;;;;6.03;4.75;;;23.80;40.70;;;;;;4966207;28;20378;-68
2022/04/17 06:38:12;;;;;;;8.52;5.20;;;22.90;42.10;;;;;;4968575;28;20043;-69
2022/04/17 06:40:38;;;;;;;7.95;5.43;;;22.40;42.70;;;;;;4966728;28;20060;-69
2022/04/17 06:43:07;;;;;;;6.40;5.57;;;21.50;44.70;;;;;;4983210;28;20050;-69
2022/04/17 06:45:35;;;;;;;5.45;4.65;;;20.40;44.50;;;;;;4980808;28;20052;-69
2022/04/17 06:48:14;;;;;;;6.85;5.38;;;19.60;46.40;;;;;;4966463;28;20078;-69
2022/04/17 06:50:41;;;;;;;5.93;4.82;;;18.60;48.80;;;;;;4966839;28;20055;-69
2022/04/17 06:53:06;;;;;;;5.90;5.22;;;18.10;50.80;;;;;;4967868;28;20343;-69
2022/04/17 06:55:33;;;;;;;6.45;5.10;;;17.90;51.60;;;;;;4965955;28;20039;-69
2022/04/17 06:57:59;;;;;;;5.93;4.90;;;17.70;51.90;;;;;;4982017;28;20046;-68
2022/04/17 07:00:24;;;;;;;6.22;5.45;;;17.30;51.40;;;;;;4964425;28;20095;-69
2022/04/17 07:02:50;;;;;;;8.27;5.57;;;17.00;51.70;;;;;;4966526;28;20039;-68
2022/04/17 07:05:16;;;;;;;7.28;4.78;;;16.60;53.30;;;;;;4982600;28;20052;-68
2022/04/17 07:07:42;;;;;;;5.60;4.55;;;16.70;54.70;;;;;;4967645;28;20096;-68
2022/04/17 07:10:11;;;;;;;6.55;5.35;;;16.80;55.10;;;;;;4961128;28;20134;-68
2022/04/17 07:12:37;;;;;;;7.68;5.00;;;16.90;53.70;;;;;;4966676;28;20035;-68
2022/04/17 07:15:06;;;;;;;6.43;5.15;;;16.90;54.10;;;;;;4963167;28;20495;-68
2022/04/17 07:17:39;;;;;;;9.95;5.43;;;16.80;54.60;;;;;;4968093;28;20051;-68
2022/04/17 07:20:07;;;;;;;6.38;5.00;;;16.50;53.50;;;;;;4966874;28;20039;-68
2022/04/17 07:22:34;;;;;;;8.15;5.00;;;16.50;55.30;;;;;;4967573;28;20373;-68
2022/04/17 07:25:01;;;;;;;8.27;5.32;;;16.50;55.50;;;;;;4967500;28;20053;-68
2022/04/17 07:27:27;;;;;;;7.72;5.30;;;16.30;55.00;;;;;;4964036;28;20039;-68
2022/04/17 07:29:53;;;;;;;6.85;4.53;;;16.40;55.80;;;;;;4965591;28;20521;-68
2022/04/17 07:32:20;;;;;;;10.63;4.78;;;16.40;54.00;;;;;;4965274;28;20043;-68
2022/04/17 07:34:47;;;;;;;5.85;4.82;;;16.50;53.40;;;;;;4964731;28;20066;-68
2022/04/17 07:37:12;;;;;;;6.72;4.63;;;16.40;53.30;;;;;;4981909;28;20049;-68
2022/04/17 07:39:38;;;;;;;10.32;4.40;;;16.10;54.00;;;;;;4965077;28;20046;-68
2022/04/17 07:42:04;;;;;;;6.90;5.07;;;16.00;55.40;;;;;;4964581;28;20066;-68
2022/04/17 07:44:32;;;;;;;5.30;4.80;;;16.00;55.80;;;;;;4965282;28;20046;-68
2022/04/17 07:46:58;;;;;;;6.75;4.72;;;15.80;55.80;;;;;;4966650;28;20042;-68
2022/04/17 07:49:26;;;;;;;8.15;4.55;;;15.80;57.70;;;;;;4966787;28;20129;-68
2022/04/17 07:51:51;;;;;;;5.25;4.40;;;15.40;54.70;;;;;;4965476;28;20123;-68
2022/04/17 07:54:17;;;;;;;8.73;5.13;;;15.50;56.40;;;;;;4964337;28;20385;-68
2022/04/17 07:56:42;;;;;;;5.65;4.35;;;15.30;56.50;;;;;;4966476;28;20038;-68
2022/04/17 07:59:08;;;;;;;6.35;3.60;;;15.30;57.60;;;;;;4963934;28;20394;-68
2022/04/17 08:01:39;;;;;;;5.63;4.28;;;15.40;54.80;;;;;;4964945;28;20396;-68
2022/04/17 08:04:05;;;;;;;4.18;3.75;;;15.40;55.60;;;;;;4964116;28;20082;-69
2022/04/17 08:06:30;;;;;;;5.68;4.43;;;15.30;56.90;;;;;;4963995;28;20069;-68
2022/04/17 08:08:56;;;;;;;6.93;4.20;;;15.70;56.90;;;;;;4947944;28;20132;-69
2022/04/17 08:11:23;;;;;;;6.07;4.50;;;15.80;55.80;;;;;;4981083;28;20035;-69
2022/04/17 08:13:49;;;;;;;6.82;4.53;;;16.10;57.10;;;;;;4967639;28;20039;-68
2022/04/17 08:16:15;;;;;;;5.72;4.15;;;15.80;54.80;;;;;;4965168;28;20050;-68
2022/04/17 08:18:41;;;;;;;6.47;4.55;;;16.00;54.50;;;;;;4964603;28;20580;-68
2022/04/17 08:21:07;;;;;;;5.07;3.60;;;16.00;56.20;;;;;;4964892;28;20485;-68
2022/04/17 08:23:35;;;;;;;5.85;4.00;;;16.10;55.60;;;;;;4964303;28;20051;-69
2022/04/17 08:26:01;;;;;;;4.28;3.83;;;16.20;53.60;;;;;;4966642;28;20047;-69
2022/04/17 08:28:27;;;;;;;4.78;4.28;;;16.30;53.10;;;;;;4965566;28;20065;-69
2022/04/17 08:30:53;;;;;;;7.50;4.40;;;16.60;54.80;;;;;;4964664;28;20509;-69
2022/04/17 08:33:18;;;;;;;5.65;3.72;;;16.60;52.40;;;;;;4965134;28;20043;-68
2022/04/17 08:35:46;;;;;;;8.77;3.80;;;16.30;53.00;;;;;;4962698;28;20517;-68
2022/04/17 08:38:14;;;;;;;7.47;4.20;;;16.20;54.30;;;;;;4964501;28;20035;-69
2022/04/17 08:40:40;;;;;;;6.47;4.25;;;16.30;55.30;;;;;;4964758;28;20053;-68
2022/04/17 08:43:08;;;;;;;5.95;4.50;;;16.40;54.90;;;;;;4964007;28;20424;-68
2022/04/17 08:45:34;;;;;;;4.68;3.13;;;16.50;54.60;;;;;;4964679;28;20504;-67
2022/04/17 08:48:01;;;;;;;5.05;4.10;;;16.40;53.50;;;;;;4965858;28;20098;-68
2022/04/17 08:50:26;;;;;;;5.90;3.75;;;16.30;53.40;;;;;;4966660;28;20461;-68
2022/04/17 08:52:53;;;;;;;6.80;4.10;;;16.20;53.10;;;;;;4965515;28;20137;-68
2022/04/17 08:55:19;;;;;;;4.60;3.28;;;16.30;54.70;;;;;;4963381;28;20035;-68
2022/04/17 08:57:45;;;;;;;4.35;3.38;;;16.40;55.60;;;;;;4963278;28;20039;-68
2022/04/17 09:00:14;;;;;;;6.03;3.53;;;16.60;54.90;;;;;;4964737;28;20043;-68
2022/04/17 09:02:40;;;;;;;4.35;3.05;;;16.80;55.00;;;;;;4964516;28;20117;-69
2022/04/17 09:05:07;;;;;;;8.40;4.32;;;16.90;53.00;;;;;;4962738;28;20191;-68
2022/04/17 09:07:40;;;;;;;6.00;3.00;;;17.10;52.60;;;;;;4959240;28;20039;-69
2022/04/17 09:10:09;;;;;;;5.65;3.42;;;17.00;50.80;;;;;;4963138;28;20065;-68
2022/04/17 09:12:35;;;;;;;12.73;3.83;;;17.10;52.10;;;;;;4961707;28;20070;-68
2022/04/17 09:15:00;;;;;;;4.65;3.40;;;17.10;50.60;;;;;;4965323;28;20075;-68
2022/04/17 09:17:33;;;;;;;4.75;3.20;;;17.10;50.20;;;;;;4981683;28;20038;-68
2022/04/17 09:20:00;;;;;;;4.15;2.97;;;17.20;50.40;;;;;;4966462;28;20047;-68
2022/04/17 09:22:48;;;;;;;5.63;3.47;;;17.20;50.30;;;;;;4971237;28;20127;-68
2022/04/17 09:25:15;;;;;;;5.47;3.85;;;17.10;50.80;;;;;;4969570;28;20069;-68
2022/04/17 09:28:00;;;;;;;4.97;3.22;;;16.50;51.10;;;;;;4970371;28;20035;-68
2022/04/17 09:30:46;;;;;;;4.72;3.53;;;16.30;53.30;;;;;;4968902;28;20049;-68
2022/04/17 09:33:13;;;;;;;5.50;3.60;;;16.50;53.70;;;;;;4952821;28;20063;-68
2022/04/17 09:35:39;;;;;;;5.70;3.80;;;16.70;52.20;;;;;;4968516;28;20046;-68
2022/04/17 09:38:14;;;;;;;6.55;4.10;;;16.70;51.70;;;;;;4969440;28;20043;-68
2022/04/17 09:40:40;;;;;;;4.70;3.50;;;16.80;52.60;;;;;;4970486;28;20061;-68
2022/04/17 09:43:17;;;;;;;5.22;3.38;;;16.80;53.10;;;;;;4966574;28;20038;-68
2022/04/17 09:46:05;;;;;;;4.30;3.67;;;17.00;55.80;;;;;;4968803;28;20047;-68
2022/04/17 09:48:35;;;;;;;3.40;3.05;;;17.00;53.20;;;;;;4965560;28;20042;-68
2022/04/17 09:51:18;;;;;;;5.20;4.05;;;17.00;52.00;;;;;;4966860;28;20051;-68
2022/04/17 09:53:59;;;;;;;5.15;3.80;;;16.90;51.50;;;;;;4971729;28;20049;-68
2022/04/17 09:56:33;;;;;;;4.82;3.42;;;16.80;53.00;;;;;;4970714;28;20380;-68
2022/04/17 09:59:00;;;;;;;5.93;3.10;;;16.50;54.90;;;;;;4970336;28;20146;-68
2022/04/17 10:01:27;;;;;;;4.13;3.60;;;16.50;54.80;;;;;;4968754;28;20050;-67
2022/04/17 10:03:54;;;;;;;4.97;3.70;;;16.60;53.90;;;;;;4969344;28;20095;-68
2022/04/17 10:06:21;;;;;;;5.78;3.65;;;16.70;53.80;;;;;;4983136;28;20600;-68
2022/04/17 10:08:47;;;;;;;4.43;3.13;;;16.70;53.50;;;;;;4968925;28;20034;-68
2022/04/17 10:11:14;;;;;;;4.95;3.35;;;16.80;53.20;;;;;;4985827;28;20046;-68
2022/04/17 10:13:40;;;;;;;5.93;3.50;;;17.00;53.70;;;;;;4963502;28;20050;-68
2022/04/17 10:16:09;;;;;;;5.75;3.05;;;17.20;53.70;;;;;;4968797;28;20489;-68
2022/04/17 10:18:38;;;;;;;3.70;3.25;;;17.20;50.00;;;;;;4967463;28;20042;-69
2022/04/17 10:21:06;;;;;;;2.95;2.47;;;17.40;49.80;;;;;;4968402;28;20523;-69
2022/04/17 10:23:34;;;;;;;3.35;2.95;;;17.60;49.40;;;;;;4967821;28;20053;-69
2022/04/17 10:26:02;;;;;;;4.70;3.15;;;17.70;50.10;;;;;;4967173;28;20528;-69
2022/04/17 10:28:34;;;;;;;6.28;3.13;;;17.70;51.60;;;;;;4970156;28;20085;-69
2022/04/17 10:31:13;;;;;;;3.85;3.03;;;17.70;49.60;;;;;;4983141;28;20463;-69
2022/04/17 10:34:08;;;;;;;5.50;3.85;;;17.80;49.30;;;;;;4982683;28;20125;-69
2022/04/17 10:36:46;;;;;;;4.18;3.15;;;17.90;49.70;;;;;;4966198;28;20034;-69
2022/04/17 10:39:16;;;;;;;4.07;3.38;;;18.10;50.10;;;;;;4969767;28;20059;-69
2022/04/17 10:41:42;;;;;;;5.68;3.70;;;18.30;52.00;;;;;;4963457;28;20058;-69
2022/04/17 10:44:12;;;;;;;4.82;3.50;;;18.40;50.80;;;;;;4968346;28;20052;-69
2022/04/17 10:46:51;;;;;;;3.75;3.05;;;18.30;50.40;;;;;;4966428;28;20051;-69
2022/04/17 10:49:19;;;;;;;3.38;2.25;;;18.40;51.40;;;;;;4969804;28;20058;-70
2022/04/17 10:51:52;;;;;;;3.92;3.08;;;18.40;48.70;;;;;;4967201;28;20046;-70
2022/04/17 10:54:17;;;;;;;5.50;2.85;;;18.20;47.20;;;;;;4964970;28;20046;-69
2022/04/17 10:56:55;;;;;;;4.57;2.85;;;18.20;48.70;;;;;;4968578;28;20042;-69
2022/04/17 10:59:28;;;;;;;4.32;2.97;;;18.30;49.80;;;;;;4967964;28;20179;-69
2022/04/17 11:02:22;;;;;;;4.15;2.75;;;18.20;49.20;;;;;;4967103;28;21478;-69
2022/04/17 11:04:54;;;;;;;3.55;2.85;;;18.20;50.00;;;;;;4967249;28;20047;-69
2022/04/17 11:07:22;;;;;;;3.97;2.80;;;18.30;46.60;;;;;;4962694;28;20054;-69
2022/04/17 11:10:03;;;;;;;4.43;2.58;;;18.40;48.70;;;;;;4967104;28;20058;-69
2022/04/17 11:12:29;;;;;;;3.95;2.80;;;18.30;48.00;;;;;;4966833;28;20062;-69
2022/04/17 11:15:01;;;;;;;2.88;2.30;;;18.30;48.40;;;;;;4968485;28;20042;-69
2022/04/17 11:17:31;;;;;;;4.70;2.25;;;18.50;47.90;;;;;;4983118;28;20043;-69
2022/04/17 11:19:59;;;;;;;3.78;2.15;;;18.40;45.30;;;;;;4966938;28;20058;-68
2022/04/17 11:22:33;;;;;;;4.55;2.60;;;18.10;44.80;;;;;;4967872;28;20089;-68
2022/04/17 11:25:00;;;;;;;2.20;1.63;;;17.80;46.00;;;;;;4965816;28;20078;-69
2022/04/17 11:27:32;;;;;;;3.60;2.35;;;17.90;47.40;;;;;;4967318;28;20513;-69
2022/04/17 11:29:58;;;;;;;3.83;2.08;;;18.10;45.60;;;;;;4967330;28;20480;-69
2022/04/17 11:32:27;;;;;;;3.35;2.30;;;18.00;45.20;;;;;;4966609;28;20046;-69
2022/04/17 11:34:53;;;;;;;3.22;2.00;;;18.10;46.80;;;;;;4966661;28;20113;-68
2022/04/17 11:37:21;;;;;;;5.57;2.70;;;17.90;44.70;;;;;;4965475;28;20047;-68
2022/04/17 11:39:47;;;;;;;4.57;2.47;;;17.90;45.80;;;;;;4980957;28;20057;-68
2022/04/17 11:42:13;;;;;;;2.88;1.75;;;17.90;46.60;;;;;;4965902;28;20110;-68
2022/04/17 11:44:48;;;;;;;3.05;2.40;;;17.70;47.10;;;;;;4965456;28;20035;-67
2022/04/17 11:47:15;;;;;;;2.50;1.95;;;17.50;44.90;;;;;;4965655;28;20042;-67
2022/04/17 11:49:45;;;;;;;3.53;2.38;;;17.50;46.30;;;;;;4965652;28;20058;-68
2022/04/17 11:52:19;;;;;;;2.60;2.28;;;17.60;48.00;;;;;;4965700;28;20051;-69
2022/04/17 11:54:46;;;;;;;3.25;2.60;;;17.90;47.20;;;;;;4982945;28;20054;-68
2022/04/17 11:57:13;;;;;;;3.00;2.50;;;18.10;47.50;;;;;;4964977;28;20042;-68
2022/04/17 11:59:49;;;;;;;3.05;2.75;;;18.20;46.70;;;;;;4967097;28;20046;-68
2022/04/17 12:02:18;;;;;;;3.55;2.90;;;17.90;44.80;;;;;;4964336;28;20039;-68
2022/04/17 12:04:48;;;;;;;4.10;3.00;;;17.90;47.60;;;;;;4965182;28;20054;-68
2022/04/17 12:07:18;;;;;;;4.35;2.88;;;17.80;48.50;;;;;;4963812;28;20047;-67
2022/04/17 12:09:44;;;;;;;3.22;2.22;;;17.60;45.30;;;;;;4966627;28;20105;-67
2022/04/17 12:12:11;;;;;;;8.02;2.67;;;17.30;46.10;;;;;;4965649;28;20035;-67
2022/04/17 12:14:37;;;;;;;4.32;2.80;;;17.40;49.20;;;;;;4966199;28;20039;-68
2022/04/17 12:17:03;;;;;;;4.18;2.70;;;17.70;50.20;;;;;;4966630;28;20083;-67
2022/04/17 12:19:31;;;;;;;3.45;2.58;;;17.80;48.10;;;;;;4967649;28;20033;-67
2022/04/17 12:21:56;;;;;;;4.28;2.65;;;17.80;48.50;;;;;;4965081;28;20031;-67
2022/04/17 12:24:22;;;;;;;4.80;3.50;;;17.80;48.60;;;;;;4963696;28;20097;-67
2022/04/17 12:26:51;;;;;;;6.20;2.72;;;17.70;49.10;;;;;;4963464;28;20053;-67
2022/04/17 12:29:17;;;;;;;3.55;3.03;;;17.80;48.90;;;;;;4964882;28;20051;-67
2022/04/17 12:31:42;;;;;;;3.75;3.05;;;17.80;50.50;;;;;;4981952;28;20053;-68
2022/04/17 12:34:18;;;;;;;6.65;3.13;;;17.60;46.00;;;;;;4966461;28;20049;-68
2022/04/17 12:36:44;;;;;;;3.83;2.95;;;17.70;48.10;;;;;;4965788;28;20133;-68
2022/04/17 12:39:10;;;;;;;3.05;2.33;;;17.80;47.90;;;;;;4965708;28;20042;-68
2022/04/17 12:41:43;;;;;;;3.25;2.63;;;18.00;49.50;;;;;;4966706;28;20570;-68
2022/04/17 12:44:12;;;;;;;3.53;2.70;;;18.30;47.90;;;;;;4965924;28;20598;-68
2022/04/17 12:46:42;;;;;;;3.92;2.83;;;18.50;46.50;;;;;;4965628;28;20038;-68
2022/04/17 12:49:24;;;;;;;4.95;2.97;;;18.30;46.30;;;;;;4963420;28;20097;-68
2022/04/17 12:51:59;;;;;;;4.28;3.28;;;18.10;46.00;;;;;;4964319;28;20079;-67
2022/04/17 12:54:37;;;;;;;6.18;3.63;;;18.00;47.20;;;;;;4967123;28;20051;-67
2022/04/17 12:57:04;;;;;;;3.42;2.97;;;17.90;47.10;;;;;;4966388;28;20039;-68
2022/04/17 12:59:49;;;;;;;5.65;4.03;;;17.90;48.00;;;;;;4970547;28;20535;-68
2022/04/17 13:02:22;;;;;;;4.45;3.10;;;17.90;47.80;;;;;;4970510;28;20045;-68